Terminal Aerodrome Forecast
Issued by NWS

Home | Current Version | Previous Version | Text Only | Print | Product List | Glossary On
Versions: 1 2 3 4 5 6 7 8 9 10 11 12 13 14 15
000
FTUS41 KBTV 261738
TAFRUT
TAF
KRUT 261738Z 2618/2718 35005KT P6SM BKN070 BKN150
     FM270000 08008KT P6SM OVC050
     FM270600 08009KT P6SM OVC040
     FM270800 05009KT 6SM -SN OVC025
     FM271000 01010G20KT 1 1/2SM -SN BR OVC015
      AMD LTD TO CLD VIS AND WIND=

USA.gov is the U.S. government's official web portal to all federal, state and local government web resources and services.